Impacts TAF Board INFO
FOR SITUATIONAL AWARENESS. NOT TO BE USED FOR FLIGHT PLANNING PURPOSES.
IDs:

KMIA - Miami Intl, FL, US

Issued at 0917 UTC 22 May 2018
Updated at 0954 UTC 22 May 2018
Potential Impact None Slight Moderate High
Time0853Z 22/10Z 22/11Z 22/12Z 22/13Z 22/14Z 22/15Z 22/16Z 22/17Z 22/18Z 22/19Z 22/20Z 22/21Z 22/22Z>>
Type OBS PRVL PRVL PRVL PRVL PRVL PRVL PRVL PRVL PRVL PRVL PRVL PRVL PRVL
VIS 10 >6 >6 >6 >6 >6 >6 >6 >6 >6 >6 >6 >6 >6
CIG 110 110 110 110 110 110 120 120 120 120 120 120 120 120
Cover OVC BKN BKN BKN BKN BKN BKN BKN BKN BKN BKN BKN BKN BKN
FltCat VFR VFR VFR VFR VFR VFR VFR VFR VFR VFR VFR VFR VFR VFR
WX -- VCSH VCSH VCSH VCSH VCSH -- -- -- -- -- -- -- --
WDir 120 120 120 120 120 120 120 120 120 120 120 120 120 120
WSpd 12 10 10 10 10 10 12 12 12 12 12 12 12 12
WGst -- -- -- -- -- -- -- -- -- -- -- -- -- --

Raw TAF
KMIA 220917Z 2209/2312 12010KT P6SM VCSH SCT025 BKN110
  FM221500 12012KT P6SM SCT030 BKN120
  FM230000 10010KT P6SM SCT030 BKN120


Raw METAR
KMIA 220853Z 12012KT 10SM SCT024 BKN110 OVC150 26/22 A3001 RMK AO2 SLP162 T02560222 56007 $
KMIA 220753Z 12010KT 9SM SCT023 OVC140 25/23 A3001 RMK AO2 SLP163 T02500228 $
KMIA 220653Z 13012G19KT 10SM FEW025 OVC120 26/23 A3002 RMK AO2 SLP165 T02560228 $

METAR Board
Radar Display
Forecast Discussion

FOR SITUATIONAL AWARENESS. NOT TO BE USED FOR FLIGHT PLANNING PURPOSES.